sensor_id;sensor_type;location;lat;lon;timestamp;P1;durP1;ratioP1;P2;durP2;ratioP2
7783;SDS011;19359;51.402;6.778;2023-02-19T00:00:11;16.48;;;10.68;;
7783;SDS011;19359;51.402;6.778;2023-02-19T00:02:39;16.33;;;9.93;;
7783;SDS011;19359;51.402;6.778;2023-02-19T00:05:07;13.57;;;9.80;;
7783;SDS011;19359;51.402;6.778;2023-02-19T00:07:34;15.02;;;9.43;;
7783;SDS011;19359;51.402;6.778;2023-02-19T00:10:01;10.82;;;9.15;;
7783;SDS011;19359;51.402;6.778;2023-02-19T00:12:28;13.30;;;9.60;;
7783;SDS011;19359;51.402;6.778;2023-02-19T00:14:55;11.20;;;9.75;;
7783;SDS011;19359;51.402;6.778;2023-02-19T00:17:24;13.57;;;9.80;;
7783;SDS011;19359;51.402;6.778;2023-02-19T00:19:50;10.27;;;7.55;;
7783;SDS011;19359;51.402;6.778;2023-02-19T00:22:17;14.27;;;9.45;;
7783;SDS011;19359;51.402;6.778;2023-02-19T00:24:44;9.75;;;8.32;;
7783;SDS011;19359;51.402;6.778;2023-02-19T00:27:11;11.60;;;7.88;;
7783;SDS011;19359;51.402;6.778;2023-02-19T00:29:38;10.18;;;9.18;;
7783;SDS011;19359;51.402;6.778;2023-02-19T00:32:05;14.32;;;9.32;;
7783;SDS011;19359;51.402;6.778;2023-02-19T00:34:34;12.15;;;9.55;;
7783;SDS011;19359;51.402;6.778;2023-02-19T00:37:01;10.63;;;9.27;;
7783;SDS011;19359;51.402;6.778;2023-02-19T00:39:28;12.23;;;9.52;;
7783;SDS011;19359;51.402;6.778;2023-02-19T00:41:55;12.88;;;9.80;;
7783;SDS011;19359;51.402;6.778;2023-02-19T00:44:24;13.60;;;9.15;;
7783;SDS011;19359;51.402;6.778;2023-02-19T00:46:51;12.85;;;10.30;;
7783;SDS011;19359;51.402;6.778;2023-02-19T00:49:19;11.20;;;9.38;;
7783;SDS011;19359;51.402;6.778;2023-02-19T00:51:50;11.60;;;8.30;;
7783;SDS011;19359;51.402;6.778;2023-02-19T00:54:17;12.10;;;10.13;;
7783;SDS011;19359;51.402;6.778;2023-02-19T00:56:46;12.02;;;8.27;;
7783;SDS011;19359;51.402;6.778;2023-02-19T00:59:13;13.13;;;10.38;;
7783;SDS011;19359;51.402;6.778;2023-02-19T01:01:40;13.70;;;10.23;;
7783;SDS011;19359;51.402;6.778;2023-02-19T01:04:08;13.25;;;9.90;;
7783;SDS011;19359;51.402;6.778;2023-02-19T01:06:35;16.52;;;10.57;;
7783;SDS011;19359;51.402;6.778;2023-02-19T01:09:04;15.70;;;10.52;;
7783;SDS011;19359;51.402;6.778;2023-02-19T01:11:31;11.80;;;8.50;;
7783;SDS011;19359;51.402;6.778;2023-02-19T01:13:59;15.30;;;11.10;;
7783;SDS011;19359;51.402;6.778;2023-02-19T01:16:26;13.63;;;8.85;;
7783;SDS011;19359;51.402;6.778;2023-02-19T01:18:55;14.48;;;9.38;;
7783;SDS011;19359;51.402;6.778;2023-02-19T01:21:23;17.05;;;11.18;;
7783;SDS011;19359;51.402;6.778;2023-02-19T01:23:51;17.95;;;12.73;;
7783;SDS011;19359;51.402;6.778;2023-02-19T01:26:21;16.27;;;11.90;;
7783;SDS011;19359;51.402;6.778;2023-02-19T01:28:49;14.05;;;10.52;;
7783;SDS011;19359;51.402;6.778;2023-02-19T01:31:18;17.98;;;11.02;;
7783;SDS011;19359;51.402;6.778;2023-02-19T01:33:46;21.85;;;12.45;;
7783;SDS011;19359;51.402;6.778;2023-02-19T01:36:14;16.08;;;11.85;;
7783;SDS011;19359;51.402;6.778;2023-02-19T01:38:41;22.58;;;13.45;;
7783;SDS011;19359;51.402;6.778;2023-02-19T01:41:09;24.20;;;13.90;;
7783;SDS011;19359;51.402;6.778;2023-02-19T01:46:33;18.23;;;12.23;;
7783;SDS011;19359;51.402;6.778;2023-02-19T01:49:02;19.58;;;11.38;;
7783;SDS011;19359;51.402;6.778;2023-02-19T01:51:31;19.65;;;11.60;;
7783;SDS011;19359;51.402;6.778;2023-02-19T01:54:01;16.08;;;10.55;;
7783;SDS011;19359;51.402;6.778;2023-02-19T01:56:30;21.98;;;12.60;;
7783;SDS011;19359;51.402;6.778;2023-02-19T01:58:59;13.65;;;9.23;;
7783;SDS011;19359;51.402;6.778;2023-02-19T02:01:26;16.55;;;10.85;;
7783;SDS011;19359;51.402;6.778;2023-02-19T02:03:55;19.33;;;10.05;;
7783;SDS011;19359;51.402;6.778;2023-02-19T02:06:22;16.08;;;12.10;;
7783;SDS011;19359;51.402;6.778;2023-02-19T02:08:51;21.38;;;12.70;;
7783;SDS011;19359;51.402;6.778;2023-02-19T02:11:39;15.52;;;10.13;;
7783;SDS011;19359;51.402;6.778;2023-02-19T02:14:09;18.80;;;11.55;;
7783;SDS011;19359;51.402;6.778;2023-02-19T02:16:39;21.08;;;13.32;;
7783;SDS011;19359;51.402;6.778;2023-02-19T02:19:18;20.75;;;11.05;;
7783;SDS011;19359;51.402;6.778;2023-02-19T02:22:00;18.88;;;10.70;;
7783;SDS011;19359;51.402;6.778;2023-02-19T02:27:40;28.08;;;13.52;;
7783;SDS011;19359;51.402;6.778;2023-02-19T02:30:26;18.98;;;7.95;;
7783;SDS011;19359;51.402;6.778;2023-02-19T02:33:00;20.00;;;12.50;;
7783;SDS011;19359;51.402;6.778;2023-02-19T02:35:33;25.02;;;13.02;;
7783;SDS011;19359;51.402;6.778;2023-02-19T02:38:04;23.60;;;12.65;;
7783;SDS011;19359;51.402;6.778;2023-02-19T02:40:35;19.17;;;10.30;;
7783;SDS011;19359;51.402;6.778;2023-02-19T02:43:04;24.80;;;12.35;;
7783;SDS011;19359;51.402;6.778;2023-02-19T02:45:32;16.13;;;10.40;;
7783;SDS011;19359;51.402;6.778;2023-02-19T02:48:00;21.05;;;11.60;;
7783;SDS011;19359;51.402;6.778;2023-02-19T02:50:34;23.83;;;13.80;;
7783;SDS011;19359;51.402;6.778;2023-02-19T02:53:04;29.52;;;13.02;;
7783;SDS011;19359;51.402;6.778;2023-02-19T02:55:53;21.60;;;10.55;;
7783;SDS011;19359;51.402;6.778;2023-02-19T02:58:21;14.48;;;8.77;;
7783;SDS011;19359;51.402;6.778;2023-02-19T03:00:53;17.55;;;9.88;;
7783;SDS011;19359;51.402;6.778;2023-02-19T03:03:40;20.15;;;11.02;;
7783;SDS011;19359;51.402;6.778;2023-02-19T03:06:10;20.35;;;9.90;;
7783;SDS011;19359;51.402;6.778;2023-02-19T03:08:41;14.00;;;8.52;;
7783;SDS011;19359;51.402;6.778;2023-02-19T03:11:13;24.70;;;9.63;;
7783;SDS011;19359;51.402;6.778;2023-02-19T03:14:00;18.98;;;10.80;;
7783;SDS011;19359;51.402;6.778;2023-02-19T03:16:49;17.88;;;10.65;;
7783;SDS011;19359;51.402;6.778;2023-02-19T03:19:37;22.67;;;11.80;;
7783;SDS011;19359;51.402;6.778;2023-02-19T03:22:10;25.95;;;11.88;;
7783;SDS011;19359;51.402;6.778;2023-02-19T03:24:41;17.88;;;9.80;;
7783;SDS011;19359;51.402;6.778;2023-02-19T03:27:31;19.58;;;10.88;;
7783;SDS011;19359;51.402;6.778;2023-02-19T03:30:00;18.48;;;10.70;;
7783;SDS011;19359;51.402;6.778;2023-02-19T03:32:32;23.20;;;10.82;;
7783;SDS011;19359;51.402;6.778;2023-02-19T03:35:02;20.75;;;9.90;;
7783;SDS011;19359;51.402;6.778;2023-02-19T03:37:35;14.20;;;7.28;;
7783;SDS011;19359;51.402;6.778;2023-02-19T03:40:04;12.00;;;6.63;;
7783;SDS011;19359;51.402;6.778;2023-02-19T03:42:34;15.15;;;8.07;;
7783;SDS011;19359;51.402;6.778;2023-02-19T03:48:19;17.80;;;8.15;;
7783;SDS011;19359;51.402;6.778;2023-02-19T03:50:57;12.93;;;7.40;;
7783;SDS011;19359;51.402;6.778;2023-02-19T03:53:33;15.52;;;7.93;;
7783;SDS011;19359;51.402;6.778;2023-02-19T03:56:08;14.95;;;8.90;;
7783;SDS011;19359;51.402;6.778;2023-02-19T03:58:41;16.10;;;8.65;;
7783;SDS011;19359;51.402;6.778;2023-02-19T04:01:18;11.80;;;7.65;;
7783;SDS011;19359;51.402;6.778;2023-02-19T04:03:52;14.45;;;7.90;;
7783;SDS011;19359;51.402;6.778;2023-02-19T04:06:23;10.35;;;7.55;;
7783;SDS011;19359;51.402;6.778;2023-02-19T04:08:53;10.05;;;6.00;;
7783;SDS011;19359;51.402;6.778;2023-02-19T04:11:22;19.00;;;7.60;;
7783;SDS011;19359;51.402;6.778;2023-02-19T04:13:50;11.80;;;6.93;;
7783;SDS011;19359;51.402;6.778;2023-02-19T04:16:24;12.90;;;6.57;;
7783;SDS011;19359;51.402;6.778;2023-02-19T04:18:56;9.85;;;5.03;;
7783;SDS011;19359;51.402;6.778;2023-02-19T04:21:27;10.98;;;6.35;;
7783;SDS011;19359;51.402;6.778;2023-02-19T04:23:56;12.70;;;7.20;;
7783;SDS011;19359;51.402;6.778;2023-02-19T04:26:27;15.15;;;7.30;;
7783;SDS011;19359;51.402;6.778;2023-02-19T04:28:55;16.35;;;6.85;;
7783;SDS011;19359;51.402;6.778;2023-02-19T04:31:22;12.32;;;5.15;;
7783;SDS011;19359;51.402;6.778;2023-02-19T04:33:51;16.30;;;6.80;;
7783;SDS011;19359;51.402;6.778;2023-02-19T04:36:19;12.85;;;6.47;;
7783;SDS011;19359;51.402;6.778;2023-02-19T04:38:45;19.08;;;6.40;;
7783;SDS011;19359;51.402;6.778;2023-02-19T04:41:12;16.80;;;7.40;;
7783;SDS011;19359;51.402;6.778;2023-02-19T04:43:39;14.48;;;6.93;;
7783;SDS011;19359;51.402;6.778;2023-02-19T04:46:06;15.40;;;6.13;;
7783;SDS011;19359;51.402;6.778;2023-02-19T04:48:34;13.88;;;6.72;;
7783;SDS011;19359;51.402;6.778;2023-02-19T04:51:03;19.42;;;5.78;;
7783;SDS011;19359;51.402;6.778;2023-02-19T04:53:32;9.52;;;6.15;;
7783;SDS011;19359;51.402;6.778;2023-02-19T04:56:04;10.02;;;6.13;;
7783;SDS011;19359;51.402;6.778;2023-02-19T04:58:31;15.70;;;6.47;;
7783;SDS011;19359;51.402;6.778;2023-02-19T05:00:58;11.18;;;6.55;;
7783;SDS011;19359;51.402;6.778;2023-02-19T05:03:25;13.05;;;6.43;;
7783;SDS011;19359;51.402;6.778;2023-02-19T05:05:52;11.73;;;4.78;;
7783;SDS011;19359;51.402;6.778;2023-02-19T05:08:19;15.45;;;7.18;;
7783;SDS011;19359;51.402;6.778;2023-02-19T05:10:48;19.45;;;7.55;;
7783;SDS011;19359;51.402;6.778;2023-02-19T05:13:15;13.70;;;6.95;;
7783;SDS011;19359;51.402;6.778;2023-02-19T05:15:42;10.75;;;5.85;;
7783;SDS011;19359;51.402;6.778;2023-02-19T05:18:09;24.42;;;7.82;;
7783;SDS011;19359;51.402;6.778;2023-02-19T05:20:35;17.08;;;8.07;;
7783;SDS011;19359;51.402;6.778;2023-02-19T05:23:02;13.57;;;7.50;;
7783;SDS011;19359;51.402;6.778;2023-02-19T05:25:29;13.70;;;6.50;;
7783;SDS011;19359;51.402;6.778;2023-02-19T05:27:57;13.20;;;6.53;;
7783;SDS011;19359;51.402;6.778;2023-02-19T05:30:38;16.65;;;6.70;;
7783;SDS011;19359;51.402;6.778;2023-02-19T05:33:05;16.75;;;6.63;;
7783;SDS011;19359;51.402;6.778;2023-02-19T05:35:32;12.30;;;5.93;;
7783;SDS011;19359;51.402;6.778;2023-02-19T05:37:59;11.77;;;6.55;;
7783;SDS011;19359;51.402;6.778;2023-02-19T05:40:26;11.40;;;6.90;;
7783;SDS011;19359;51.402;6.778;2023-02-19T05:42:53;9.77;;;5.78;;
7783;SDS011;19359;51.402;6.778;2023-02-19T05:45:21;16.77;;;5.75;;
7783;SDS011;19359;51.402;6.778;2023-02-19T05:47:48;15.13;;;6.30;;
7783;SDS011;19359;51.402;6.778;2023-02-19T05:50:15;15.45;;;6.22;;
7783;SDS011;19359;51.402;6.778;2023-02-19T05:52:42;12.00;;;6.85;;
7783;SDS011;19359;51.402;6.778;2023-02-19T05:55:09;12.13;;;7.15;;
7783;SDS011;19359;51.402;6.778;2023-02-19T05:57:38;7.38;;;5.30;;
7783;SDS011;19359;51.402;6.778;2023-02-19T06:00:06;17.90;;;6.95;;
7783;SDS011;19359;51.402;6.778;2023-02-19T06:02:35;13.70;;;6.15;;
7783;SDS011;19359;51.402;6.778;2023-02-19T06:05:03;24.90;;;6.82;;
7783;SDS011;19359;51.402;6.778;2023-02-19T06:07:30;12.00;;;6.20;;
7783;SDS011;19359;51.402;6.778;2023-02-19T06:09:57;15.25;;;6.30;;
7783;SDS011;19359;51.402;6.778;2023-02-19T06:12:24;18.33;;;6.80;;
7783;SDS011;19359;51.402;6.778;2023-02-19T06:14:51;15.65;;;6.07;;
7783;SDS011;19359;51.402;6.778;2023-02-19T06:17:18;15.90;;;5.80;;
7783;SDS011;19359;51.402;6.778;2023-02-19T06:19:46;11.38;;;5.47;;
7783;SDS011;19359;51.402;6.778;2023-02-19T06:22:13;13.48;;;5.53;;
7783;SDS011;19359;51.402;6.778;2023-02-19T06:24:40;15.30;;;5.78;;
7783;SDS011;19359;51.402;6.778;2023-02-19T06:27:07;11.20;;;5.70;;
7783;SDS011;19359;51.402;6.778;2023-02-19T06:29:34;12.43;;;5.47;;
7783;SDS011;19359;51.402;6.778;2023-02-19T06:32:02;15.38;;;5.53;;
7783;SDS011;19359;51.402;6.778;2023-02-19T06:34:29;11.18;;;5.70;;
7783;SDS011;19359;51.402;6.778;2023-02-19T06:36:58;10.45;;;4.50;;
7783;SDS011;19359;51.402;6.778;2023-02-19T06:39:26;16.00;;;5.55;;
7783;SDS011;19359;51.402;6.778;2023-02-19T06:41:53;17.70;;;6.07;;
7783;SDS011;19359;51.402;6.778;2023-02-19T06:44:20;15.38;;;5.75;;
7783;SDS011;19359;51.402;6.778;2023-02-19T06:46:47;21.10;;;6.05;;
7783;SDS011;19359;51.402;6.778;2023-02-19T06:49:15;22.17;;;5.60;;
7783;SDS011;19359;51.402;6.778;2023-02-19T06:51:42;6.90;;;4.95;;
7783;SDS011;19359;51.402;6.778;2023-02-19T06:54:10;11.18;;;5.03;;
7783;SDS011;19359;51.402;6.778;2023-02-19T06:56:38;9.43;;;4.78;;
7783;SDS011;19359;51.402;6.778;2023-02-19T06:59:06;10.52;;;4.57;;
7783;SDS011;19359;51.402;6.778;2023-02-19T07:01:35;9.27;;;3.53;;
7783;SDS011;19359;51.402;6.778;2023-02-19T07:04:03;21.92;;;5.78;;
7783;SDS011;19359;51.402;6.778;2023-02-19T07:06:31;13.73;;;4.20;;
7783;SDS011;19359;51.402;6.778;2023-02-19T07:08:59;9.80;;;5.03;;
7783;SDS011;19359;51.402;6.778;2023-02-19T07:11:29;11.75;;;5.88;;
7783;SDS011;19359;51.402;6.778;2023-02-19T07:13:58;22.95;;;6.90;;
7783;SDS011;19359;51.402;6.778;2023-02-19T07:16:26;11.25;;;7.05;;
7783;SDS011;19359;51.402;6.778;2023-02-19T07:18:54;13.48;;;5.72;;
7783;SDS011;19359;51.402;6.778;2023-02-19T07:21:21;13.93;;;5.65;;
7783;SDS011;19359;51.402;6.778;2023-02-19T07:23:48;14.32;;;5.63;;
7783;SDS011;19359;51.402;6.778;2023-02-19T07:26:16;13.93;;;5.20;;
7783;SDS011;19359;51.402;6.778;2023-02-19T07:28:47;12.35;;;5.72;;
7783;SDS011;19359;51.402;6.778;2023-02-19T07:31:15;13.15;;;5.57;;
7783;SDS011;19359;51.402;6.778;2023-02-19T07:33:44;15.30;;;5.88;;
7783;SDS011;19359;51.402;6.778;2023-02-19T07:36:11;16.25;;;6.43;;
7783;SDS011;19359;51.402;6.778;2023-02-19T07:38:39;16.13;;;5.55;;
7783;SDS011;19359;51.402;6.778;2023-02-19T07:41:06;26.77;;;6.85;;
7783;SDS011;19359;51.402;6.778;2023-02-19T07:43:33;13.07;;;6.38;;
7783;SDS011;19359;51.402;6.778;2023-02-19T07:46:03;12.52;;;6.05;;
7783;SDS011;19359;51.402;6.778;2023-02-19T07:48:30;15.18;;;6.10;;
7783;SDS011;19359;51.402;6.778;2023-02-19T07:50:58;16.77;;;6.65;;
7783;SDS011;19359;51.402;6.778;2023-02-19T07:53:26;20.30;;;6.85;;
7783;SDS011;19359;51.402;6.778;2023-02-19T07:55:57;15.18;;;6.25;;
7783;SDS011;19359;51.402;6.778;2023-02-19T07:58:24;11.95;;;4.63;;
7783;SDS011;19359;51.402;6.778;2023-02-19T08:00:51;11.27;;;6.50;;
7783;SDS011;19359;51.402;6.778;2023-02-19T08:03:19;8.48;;;6.05;;
7783;SDS011;19359;51.402;6.778;2023-02-19T08:05:47;13.15;;;6.75;;
7783;SDS011;19359;51.402;6.778;2023-02-19T08:08:15;8.73;;;6.80;;
7783;SDS011;19359;51.402;6.778;2023-02-19T08:10:42;16.50;;;6.88;;
7783;SDS011;19359;51.402;6.778;2023-02-19T08:13:27;11.80;;;7.22;;
7783;SDS011;19359;51.402;6.778;2023-02-19T08:15:55;14.02;;;5.75;;
7783;SDS011;19359;51.402;6.778;2023-02-19T08:18:37;10.27;;;5.47;;
7783;SDS011;19359;51.402;6.778;2023-02-19T08:21:04;20.48;;;7.95;;
7783;SDS011;19359;51.402;6.778;2023-02-19T08:23:31;15.10;;;7.20;;
7783;SDS011;19359;51.402;6.778;2023-02-19T08:25:58;15.07;;;6.45;;
7783;SDS011;19359;51.402;6.778;2023-02-19T08:28:26;15.40;;;5.78;;
7783;SDS011;19359;51.402;6.778;2023-02-19T08:30:56;15.48;;;6.30;;
7783;SDS011;19359;51.402;6.778;2023-02-19T08:33:24;16.13;;;6.80;;
7783;SDS011;19359;51.402;6.778;2023-02-19T08:35:53;12.48;;;6.45;;
7783;SDS011;19359;51.402;6.778;2023-02-19T08:38:20;13.00;;;6.35;;
7783;SDS011;19359;51.402;6.778;2023-02-19T08:40:47;10.75;;;6.43;;
7783;SDS011;19359;51.402;6.778;2023-02-19T08:43:14;10.13;;;5.65;;
7783;SDS011;19359;51.402;6.778;2023-02-19T08:45:43;11.45;;;5.57;;
7783;SDS011;19359;51.402;6.778;2023-02-19T08:48:11;20.77;;;7.07;;
7783;SDS011;19359;51.402;6.778;2023-02-19T08:50:38;11.32;;;5.97;;
7783;SDS011;19359;51.402;6.778;2023-02-19T08:53:06;18.52;;;5.75;;
7783;SDS011;19359;51.402;6.778;2023-02-19T08:55:33;7.68;;;5.32;;
7783;SDS011;19359;51.402;6.778;2023-02-19T08:58:01;9.30;;;5.15;;
7783;SDS011;19359;51.402;6.778;2023-02-19T09:00:28;11.25;;;5.28;;
7783;SDS011;19359;51.402;6.778;2023-02-19T09:02:56;14.60;;;6.00;;
7783;SDS011;19359;51.402;6.778;2023-02-19T09:05:23;12.93;;;5.57;;
7783;SDS011;19359;51.402;6.778;2023-02-19T09:07:49;16.73;;;5.70;;
7783;SDS011;19359;51.402;6.778;2023-02-19T09:10:17;14.80;;;5.78;;
7783;SDS011;19359;51.402;6.778;2023-02-19T09:12:44;17.48;;;5.97;;
7783;SDS011;19359;51.402;6.778;2023-02-19T09:15:11;9.30;;;4.90;;
7783;SDS011;19359;51.402;6.778;2023-02-19T09:17:38;12.75;;;6.28;;
7783;SDS011;19359;51.402;6.778;2023-02-19T09:20:05;10.48;;;6.15;;
7783;SDS011;19359;51.402;6.778;2023-02-19T09:22:32;10.93;;;4.47;;
7783;SDS011;19359;51.402;6.778;2023-02-19T09:24:59;10.82;;;4.90;;
7783;SDS011;19359;51.402;6.778;2023-02-19T09:27:27;11.30;;;4.80;;
7783;SDS011;19359;51.402;6.778;2023-02-19T09:29:55;16.55;;;5.65;;
7783;SDS011;19359;51.402;6.778;2023-02-19T09:32:22;11.77;;;5.78;;
7783;SDS011;19359;51.402;6.778;2023-02-19T09:34:49;11.80;;;5.15;;
7783;SDS011;19359;51.402;6.778;2023-02-19T09:37:15;8.18;;;4.15;;
7783;SDS011;19359;51.402;6.778;2023-02-19T09:39:42;11.38;;;3.90;;
7783;SDS011;19359;51.402;6.778;2023-02-19T09:42:10;7.45;;;4.07;;
7783;SDS011;19359;51.402;6.778;2023-02-19T09:44:43;16.63;;;5.45;;
7783;SDS011;19359;51.402;6.778;2023-02-19T09:47:14;18.33;;;5.20;;
7783;SDS011;19359;51.402;6.778;2023-02-19T09:49:43;3.85;;;3.33;;
7783;SDS011;19359;51.402;6.778;2023-02-19T09:52:14;12.05;;;3.92;;
7783;SDS011;19359;51.402;6.778;2023-02-19T09:54:44;8.55;;;4.28;;
7783;SDS011;19359;51.402;6.778;2023-02-19T09:57:12;9.35;;;4.20;;
7783;SDS011;19359;51.402;6.778;2023-02-19T09:59:43;6.13;;;3.95;;
7783;SDS011;19359;51.402;6.778;2023-02-19T10:02:14;7.65;;;4.57;;
7783;SDS011;19359;51.402;6.778;2023-02-19T10:04:43;8.38;;;4.65;;
7783;SDS011;19359;51.402;6.778;2023-02-19T10:07:11;9.68;;;5.28;;
7783;SDS011;19359;51.402;6.778;2023-02-19T10:09:39;9.02;;;4.38;;
7783;SDS011;19359;51.402;6.778;2023-02-19T10:12:11;8.38;;;4.68;;
7783;SDS011;19359;51.402;6.778;2023-02-19T10:14:43;7.45;;;2.22;;
7783;SDS011;19359;51.402;6.778;2023-02-19T10:17:14;10.15;;;4.00;;
7783;SDS011;19359;51.402;6.778;2023-02-19T10:19:48;8.75;;;4.20;;
7783;SDS011;19359;51.402;6.778;2023-02-19T10:22:15;7.30;;;3.65;;
7783;SDS011;19359;51.402;6.778;2023-02-19T10:24:43;7.18;;;4.28;;
7783;SDS011;19359;51.402;6.778;2023-02-19T10:27:14;10.82;;;4.28;;
7783;SDS011;19359;51.402;6.778;2023-02-19T10:29:43;4.80;;;3.85;;
7783;SDS011;19359;51.402;6.778;2023-02-19T10:32:12;4.85;;;4.32;;
7783;SDS011;19359;51.402;6.778;2023-02-19T10:34:42;9.02;;;4.68;;
7783;SDS011;19359;51.402;6.778;2023-02-19T10:37:09;16.85;;;4.43;;
7783;SDS011;19359;51.402;6.778;2023-02-19T10:39:41;10.25;;;4.03;;
7783;SDS011;19359;51.402;6.778;2023-02-19T10:42:16;5.55;;;3.13;;
7783;SDS011;19359;51.402;6.778;2023-02-19T10:44:46;9.70;;;4.22;;
7783;SDS011;19359;51.402;6.778;2023-02-19T10:47:17;4.07;;;3.72;;
7783;SDS011;19359;51.402;6.778;2023-02-19T10:49:47;8.43;;;4.35;;
7783;SDS011;19359;51.402;6.778;2023-02-19T10:52:17;4.68;;;3.70;;
7783;SDS011;19359;51.402;6.778;2023-02-19T10:54:48;4.30;;;3.90;;
7783;SDS011;19359;51.402;6.778;2023-02-19T10:57:24;3.65;;;2.97;;
7783;SDS011;19359;51.402;6.778;2023-02-19T10:59:58;4.70;;;3.70;;
7783;SDS011;19359;51.402;6.778;2023-02-19T11:02:28;7.72;;;4.00;;
7783;SDS011;19359;51.402;6.778;2023-02-19T11:07:45;3.92;;;3.40;;
7783;SDS011;19359;51.402;6.778;2023-02-19T11:10:22;4.50;;;3.17;;
7783;SDS011;19359;51.402;6.778;2023-02-19T11:12:52;4.50;;;2.53;;
7783;SDS011;19359;51.402;6.778;2023-02-19T11:15:24;5.43;;;4.22;;
7783;SDS011;19359;51.402;6.778;2023-02-19T11:17:53;5.00;;;3.20;;
7783;SDS011;19359;51.402;6.778;2023-02-19T11:20:21;6.50;;;3.97;;
7783;SDS011;19359;51.402;6.778;2023-02-19T11:22:49;4.05;;;3.72;;
7783;SDS011;19359;51.402;6.778;2023-02-19T11:25:19;7.32;;;3.33;;
7783;SDS011;19359;51.402;6.778;2023-02-19T11:27:53;5.05;;;4.18;;
7783;SDS011;19359;51.402;6.778;2023-02-19T11:30:33;9.48;;;4.60;;
7783;SDS011;19359;51.402;6.778;2023-02-19T11:33:18;3.58;;;3.38;;
7783;SDS011;19359;51.402;6.778;2023-02-19T11:35:49;4.03;;;2.97;;
7783;SDS011;19359;51.402;6.778;2023-02-19T11:38:17;6.80;;;4.13;;
7783;SDS011;19359;51.402;6.778;2023-02-19T11:40:47;3.72;;;3.53;;
7783;SDS011;19359;51.402;6.778;2023-02-19T11:43:23;7.97;;;4.57;;
7783;SDS011;19359;51.402;6.778;2023-02-19T11:46:15;8.23;;;4.70;;
7783;SDS011;19359;51.402;6.778;2023-02-19T11:48:50;10.18;;;4.38;;
7783;SDS011;19359;51.402;6.778;2023-02-19T11:51:32;4.40;;;3.65;;
7783;SDS011;19359;51.402;6.778;2023-02-19T11:54:29;1.20;;;1.10;;
7783;SDS011;19359;51.402;6.778;2023-02-19T11:57:08;2.45;;;1.90;;
7783;SDS011;19359;51.402;6.778;2023-02-19T11:59:44;2.22;;;2.00;;
7783;SDS011;19359;51.402;6.778;2023-02-19T12:02:21;1.30;;;1.25;;
7783;SDS011;19359;51.402;6.778;2023-02-19T12:05:12;2.63;;;1.50;;
7783;SDS011;19359;51.402;6.778;2023-02-19T12:08:01;5.13;;;2.67;;
7783;SDS011;19359;51.402;6.778;2023-02-19T12:11:09;2.30;;;1.92;;
7783;SDS011;19359;51.402;6.778;2023-02-19T12:13:49;0.75;;;0.75;;
7783;SDS011;19359;51.402;6.778;2023-02-19T12:16:30;2.15;;;1.70;;
7783;SDS011;19359;51.402;6.778;2023-02-19T12:19:11;2.45;;;1.60;;
7783;SDS011;19359;51.402;6.778;2023-02-19T12:21:58;2.97;;;2.00;;
7783;SDS011;19359;51.402;6.778;2023-02-19T12:25:11;2.30;;;2.10;;
7783;SDS011;19359;51.402;6.778;2023-02-19T12:27:53;1.10;;;1.10;;
7783;SDS011;19359;51.402;6.778;2023-02-19T12:30:31;1.65;;;1.48;;
7783;SDS011;19359;51.402;6.778;2023-02-19T12:33:11;5.45;;;2.35;;
7783;SDS011;19359;51.402;6.778;2023-02-19T12:35:56;1.45;;;1.35;;
7783;SDS011;19359;51.402;6.778;2023-02-19T12:38:31;1.50;;;1.50;;
7783;SDS011;19359;51.402;6.778;2023-02-19T12:41:09;2.33;;;1.30;;
7783;SDS011;19359;51.402;6.778;2023-02-19T12:43:52;1.65;;;0.90;;
7783;SDS011;19359;51.402;6.778;2023-02-19T12:46:24;1.48;;;0.80;;
7783;SDS011;19359;51.402;6.778;2023-02-19T12:48:57;4.43;;;1.50;;
7783;SDS011;19359;51.402;6.778;2023-02-19T12:51:31;3.72;;;1.05;;
7783;SDS011;19359;51.402;6.778;2023-02-19T12:54:03;5.07;;;2.05;;
7783;SDS011;19359;51.402;6.778;2023-02-19T12:56:36;1.48;;;1.35;;
7783;SDS011;19359;51.402;6.778;2023-02-19T12:59:08;2.75;;;1.60;;
7783;SDS011;19359;51.402;6.778;2023-02-19T13:04:24;1.77;;;1.67;;
7783;SDS011;19359;51.402;6.778;2023-02-19T13:06:56;1.63;;;1.52;;
7783;SDS011;19359;51.402;6.778;2023-02-19T13:09:28;2.58;;;1.83;;
7783;SDS011;19359;51.402;6.778;2023-02-19T13:12:00;2.63;;;2.42;;
7783;SDS011;19359;51.402;6.778;2023-02-19T13:14:29;2.60;;;2.17;;
7783;SDS011;19359;51.402;6.778;2023-02-19T13:16:59;4.85;;;2.95;;
7783;SDS011;19359;51.402;6.778;2023-02-19T13:19:32;2.70;;;2.50;;
7783;SDS011;19359;51.402;6.778;2023-02-19T13:22:04;6.75;;;2.70;;
7783;SDS011;19359;51.402;6.778;2023-02-19T13:25:01;8.57;;;2.33;;
7783;SDS011;19359;51.402;6.778;2023-02-19T13:27:34;4.10;;;2.80;;
7783;SDS011;19359;51.402;6.778;2023-02-19T13:30:25;5.03;;;3.15;;
7783;SDS011;19359;51.402;6.778;2023-02-19T13:33:05;4.13;;;3.67;;
7783;SDS011;19359;51.402;6.778;2023-02-19T13:36:03;5.30;;;4.80;;
7783;SDS011;19359;51.402;6.778;2023-02-19T13:38:39;9.95;;;3.55;;
7783;SDS011;19359;51.402;6.778;2023-02-19T13:41:16;5.15;;;4.20;;
7783;SDS011;19359;51.402;6.778;2023-02-19T13:43:45;6.30;;;4.47;;
7783;SDS011;19359;51.402;6.778;2023-02-19T13:46:13;5.13;;;4.40;;
7783;SDS011;19359;51.402;6.778;2023-02-19T13:48:42;7.43;;;4.38;;
7783;SDS011;19359;51.402;6.778;2023-02-19T13:54:23;6.22;;;4.78;;
7783;SDS011;19359;51.402;6.778;2023-02-19T13:57:18;6.22;;;4.68;;
7783;SDS011;19359;51.402;6.778;2023-02-19T13:59:52;5.18;;;4.30;;
7783;SDS011;19359;51.402;6.778;2023-02-19T14:04:57;8.82;;;4.28;;
7783;SDS011;19359;51.402;6.778;2023-02-19T14:19:44;13.38;;;8.07;;
7783;SDS011;19359;51.402;6.778;2023-02-19T14:25:27;6.20;;;5.60;;
7783;SDS011;19359;51.402;6.778;2023-02-19T14:28:27;6.25;;;5.68;;
7783;SDS011;19359;51.402;6.778;2023-02-19T14:31:01;6.60;;;4.95;;
7783;SDS011;19359;51.402;6.778;2023-02-19T14:33:44;15.60;;;5.38;;
7783;SDS011;19359;51.402;6.778;2023-02-19T14:36:16;5.22;;;4.55;;
7783;SDS011;19359;51.402;6.778;2023-02-19T14:38:49;10.05;;;5.72;;
7783;SDS011;19359;51.402;6.778;2023-02-19T14:41:19;5.90;;;5.30;;
7783;SDS011;19359;51.402;6.778;2023-02-19T14:43:48;11.82;;;5.97;;
7783;SDS011;19359;51.402;6.778;2023-02-19T14:46:20;9.15;;;5.95;;
7783;SDS011;19359;51.402;6.778;2023-02-19T14:48:52;8.98;;;6.60;;
7783;SDS011;19359;51.402;6.778;2023-02-19T14:51:22;10.50;;;6.88;;
7783;SDS011;19359;51.402;6.778;2023-02-19T14:53:56;13.77;;;6.80;;
7783;SDS011;19359;51.402;6.778;2023-02-19T14:56:26;8.65;;;6.22;;
7783;SDS011;19359;51.402;6.778;2023-02-19T14:59:04;12.13;;;6.40;;
7783;SDS011;19359;51.402;6.778;2023-02-19T15:01:53;10.68;;;6.00;;
7783;SDS011;19359;51.402;6.778;2023-02-19T15:04:21;8.27;;;5.82;;
7783;SDS011;19359;51.402;6.778;2023-02-19T15:06:49;11.63;;;6.97;;
7783;SDS011;19359;51.402;6.778;2023-02-19T15:09:18;8.98;;;6.30;;
7783;SDS011;19359;51.402;6.778;2023-02-19T15:11:46;12.88;;;7.53;;
7783;SDS011;19359;51.402;6.778;2023-02-19T15:14:15;11.93;;;6.13;;
7783;SDS011;19359;51.402;6.778;2023-02-19T15:16:46;9.77;;;7.15;;
7783;SDS011;19359;51.402;6.778;2023-02-19T15:19:15;8.90;;;7.20;;
7783;SDS011;19359;51.402;6.778;2023-02-19T15:21:43;12.65;;;7.38;;
7783;SDS011;19359;51.402;6.778;2023-02-19T15:24:12;9.77;;;7.03;;
7783;SDS011;19359;51.402;6.778;2023-02-19T15:26:42;15.68;;;8.52;;
7783;SDS011;19359;51.402;6.778;2023-02-19T15:29:13;9.20;;;7.78;;
7783;SDS011;19359;51.402;6.778;2023-02-19T15:31:43;11.40;;;7.50;;
7783;SDS011;19359;51.402;6.778;2023-02-19T15:34:15;10.32;;;8.55;;
7783;SDS011;19359;51.402;6.778;2023-02-19T15:36:43;11.13;;;8.15;;
7783;SDS011;19359;51.402;6.778;2023-02-19T15:39:11;16.45;;;8.13;;
7783;SDS011;19359;51.402;6.778;2023-02-19T15:41:48;13.10;;;8.70;;
7783;SDS011;19359;51.402;6.778;2023-02-19T15:44:23;12.27;;;8.38;;
7783;SDS011;19359;51.402;6.778;2023-02-19T15:47:01;18.08;;;8.85;;
7783;SDS011;19359;51.402;6.778;2023-02-19T15:49:35;13.65;;;8.55;;